sensor_id;sensor_type;location;lat;lon;timestamp;P1;durP1;ratioP1;P2;durP2;ratioP2
15488;SDS011;7846;48.830;9.116;2022-08-27T00:00:49;36.93;;;32.97;;
15488;SDS011;7846;48.830;9.116;2022-08-27T00:03:14;36.50;;;32.57;;
15488;SDS011;7846;48.830;9.116;2022-08-27T00:05:41;36.30;;;32.50;;
15488;SDS011;7846;48.830;9.116;2022-08-27T00:08:09;37.23;;;32.40;;
15488;SDS011;7846;48.830;9.116;2022-08-27T00:10:36;37.50;;;33.50;;
15488;SDS011;7846;48.830;9.116;2022-08-27T00:13:02;38.20;;;34.10;;
15488;SDS011;7846;48.830;9.116;2022-08-27T00:15:29;36.33;;;32.57;;
15488;SDS011;7846;48.830;9.116;2022-08-27T00:17:55;36.73;;;32.67;;
15488;SDS011;7846;48.830;9.116;2022-08-27T00:20:21;37.30;;;33.37;;
15488;SDS011;7846;48.830;9.116;2022-08-27T00:22:49;36.17;;;32.30;;
15488;SDS011;7846;48.830;9.116;2022-08-27T00:25:17;39.07;;;33.40;;
15488;SDS011;7846;48.830;9.116;2022-08-27T00:27:43;38.37;;;33.60;;
15488;SDS011;7846;48.830;9.116;2022-08-27T00:30:11;36.33;;;32.40;;
15488;SDS011;7846;48.830;9.116;2022-08-27T00:32:39;35.63;;;31.90;;
15488;SDS011;7846;48.830;9.116;2022-08-27T00:35:08;36.40;;;32.57;;
15488;SDS011;7846;48.830;9.116;2022-08-27T00:37:34;35.97;;;32.27;;
15488;SDS011;7846;48.830;9.116;2022-08-27T00:39:59;38.93;;;33.47;;
15488;SDS011;7846;48.830;9.116;2022-08-27T00:42:27;36.50;;;32.50;;
15488;SDS011;7846;48.830;9.116;2022-08-27T00:44:52;34.87;;;31.20;;
15488;SDS011;7846;48.830;9.116;2022-08-27T00:47:22;35.03;;;31.20;;
15488;SDS011;7846;48.830;9.116;2022-08-27T00:49:53;35.47;;;30.87;;
15488;SDS011;7846;48.830;9.116;2022-08-27T00:54:57;34.60;;;31.10;;
15488;SDS011;7846;48.830;9.116;2022-08-27T00:57:26;33.53;;;29.97;;
15488;SDS011;7846;48.830;9.116;2022-08-27T00:59:53;37.27;;;31.87;;
15488;SDS011;7846;48.830;9.116;2022-08-27T01:02:19;31.87;;;28.67;;
15488;SDS011;7846;48.830;9.116;2022-08-27T01:07:22;33.87;;;30.33;;
15488;SDS011;7846;48.830;9.116;2022-08-27T01:09:50;32.87;;;29.53;;
15488;SDS011;7846;48.830;9.116;2022-08-27T01:12:17;32.53;;;29.23;;
15488;SDS011;7846;48.830;9.116;2022-08-27T01:14:44;32.60;;;29.17;;
15488;SDS011;7846;48.830;9.116;2022-08-27T01:17:10;33.43;;;29.70;;
15488;SDS011;7846;48.830;9.116;2022-08-27T01:19:42;34.33;;;30.67;;
15488;SDS011;7846;48.830;9.116;2022-08-27T01:24:58;31.77;;;28.47;;
15488;SDS011;7846;48.830;9.116;2022-08-27T01:27:26;32.60;;;29.10;;
15488;SDS011;7846;48.830;9.116;2022-08-27T01:29:54;34.23;;;30.57;;
15488;SDS011;7846;48.830;9.116;2022-08-27T01:32:21;39.80;;;34.83;;
15488;SDS011;7846;48.830;9.116;2022-08-27T01:34:49;41.63;;;34.90;;
15488;SDS011;7846;48.830;9.116;2022-08-27T01:37:16;44.13;;;35.37;;
15488;SDS011;7846;48.830;9.116;2022-08-27T01:39:43;41.73;;;36.20;;
15488;SDS011;7846;48.830;9.116;2022-08-27T01:42:11;43.20;;;36.27;;
15488;SDS011;7846;48.830;9.116;2022-08-27T01:44:41;44.33;;;36.27;;
15488;SDS011;7846;48.830;9.116;2022-08-27T01:47:16;38.97;;;34.77;;
15488;SDS011;7846;48.830;9.116;2022-08-27T01:49:47;40.30;;;36.13;;
15488;SDS011;7846;48.830;9.116;2022-08-27T01:52:14;40.23;;;34.80;;
15488;SDS011;7846;48.830;9.116;2022-08-27T01:54:43;40.67;;;36.07;;
15488;SDS011;7846;48.830;9.116;2022-08-27T01:57:11;41.43;;;35.07;;
15488;SDS011;7846;48.830;9.116;2022-08-27T01:59:36;37.90;;;33.80;;
15488;SDS011;7846;48.830;9.116;2022-08-27T02:02:04;38.57;;;33.90;;
15488;SDS011;7846;48.830;9.116;2022-08-27T02:04:30;42.03;;;34.43;;
15488;SDS011;7846;48.830;9.116;2022-08-27T02:06:56;38.63;;;34.43;;
15488;SDS011;7846;48.830;9.116;2022-08-27T02:09:22;41.17;;;35.93;;
15488;SDS011;7846;48.830;9.116;2022-08-27T02:11:47;40.40;;;35.07;;
15488;SDS011;7846;48.830;9.116;2022-08-27T02:14:14;42.67;;;35.70;;
15488;SDS011;7846;48.830;9.116;2022-08-27T02:16:42;41.27;;;35.23;;
15488;SDS011;7846;48.830;9.116;2022-08-27T02:19:09;42.07;;;35.23;;
15488;SDS011;7846;48.830;9.116;2022-08-27T02:21:34;40.87;;;35.60;;
15488;SDS011;7846;48.830;9.116;2022-08-27T02:24:03;42.90;;;36.70;;
15488;SDS011;7846;48.830;9.116;2022-08-27T02:26:29;41.07;;;35.07;;
15488;SDS011;7846;48.830;9.116;2022-08-27T02:28:54;41.27;;;36.80;;
15488;SDS011;7846;48.830;9.116;2022-08-27T02:31:21;48.33;;;37.47;;
15488;SDS011;7846;48.830;9.116;2022-08-27T02:33:47;50.00;;;38.67;;
15488;SDS011;7846;48.830;9.116;2022-08-27T02:36:14;47.07;;;38.50;;
15488;SDS011;7846;48.830;9.116;2022-08-27T02:38:40;47.27;;;37.23;;
15488;SDS011;7846;48.830;9.116;2022-08-27T02:41:06;40.53;;;35.13;;
15488;SDS011;7846;48.830;9.116;2022-08-27T02:43:33;37.57;;;33.47;;
15488;SDS011;7846;48.830;9.116;2022-08-27T02:45:59;40.37;;;34.27;;
15488;SDS011;7846;48.830;9.116;2022-08-27T02:48:25;38.00;;;33.03;;
15488;SDS011;7846;48.830;9.116;2022-08-27T02:50:51;36.47;;;32.50;;
15488;SDS011;7846;48.830;9.116;2022-08-27T02:53:18;37.37;;;33.37;;
15488;SDS011;7846;48.830;9.116;2022-08-27T02:55:44;35.30;;;31.50;;
15488;SDS011;7846;48.830;9.116;2022-08-27T02:58:10;36.47;;;31.87;;
15488;SDS011;7846;48.830;9.116;2022-08-27T03:00:39;31.60;;;28.27;;
15488;SDS011;7846;48.830;9.116;2022-08-27T03:03:06;31.47;;;28.17;;
15488;SDS011;7846;48.830;9.116;2022-08-27T03:05:33;31.90;;;28.43;;
15488;SDS011;7846;48.830;9.116;2022-08-27T03:07:59;31.33;;;27.07;;
15488;SDS011;7846;48.830;9.116;2022-08-27T03:10:26;30.73;;;27.50;;
15488;SDS011;7846;48.830;9.116;2022-08-27T03:12:52;27.37;;;24.43;;
15488;SDS011;7846;48.830;9.116;2022-08-27T03:15:18;25.73;;;23.10;;
15488;SDS011;7846;48.830;9.116;2022-08-27T03:17:45;27.30;;;24.50;;
15488;SDS011;7846;48.830;9.116;2022-08-27T03:20:29;27.07;;;23.93;;
15488;SDS011;7846;48.830;9.116;2022-08-27T03:22:54;26.30;;;23.17;;
15488;SDS011;7846;48.830;9.116;2022-08-27T03:25:21;24.30;;;21.87;;
15488;SDS011;7846;48.830;9.116;2022-08-27T03:27:46;23.17;;;20.87;;
15488;SDS011;7846;48.830;9.116;2022-08-27T03:30:14;23.20;;;20.80;;
15488;SDS011;7846;48.830;9.116;2022-08-27T03:32:42;22.07;;;19.80;;
15488;SDS011;7846;48.830;9.116;2022-08-27T03:35:08;23.93;;;21.40;;
15488;SDS011;7846;48.830;9.116;2022-08-27T03:37:34;24.77;;;22.27;;
15488;SDS011;7846;48.830;9.116;2022-08-27T03:40:07;25.47;;;22.77;;
15488;SDS011;7846;48.830;9.116;2022-08-27T03:42:34;27.30;;;24.27;;
15488;SDS011;7846;48.830;9.116;2022-08-27T03:45:00;30.80;;;26.93;;
15488;SDS011;7846;48.830;9.116;2022-08-27T03:47:25;29.47;;;26.30;;
15488;SDS011;7846;48.830;9.116;2022-08-27T03:49:52;32.20;;;28.80;;
15488;SDS011;7846;48.830;9.116;2022-08-27T03:52:20;37.00;;;31.33;;
15488;SDS011;7846;48.830;9.116;2022-08-27T03:54:47;37.50;;;31.37;;
15488;SDS011;7846;48.830;9.116;2022-08-27T03:57:12;41.27;;;34.03;;
15488;SDS011;7846;48.830;9.116;2022-08-27T03:59:38;44.53;;;35.73;;
15488;SDS011;7846;48.830;9.116;2022-08-27T04:02:03;43.37;;;36.30;;
15488;SDS011;7846;48.830;9.116;2022-08-27T04:04:29;46.20;;;36.50;;
15488;SDS011;7846;48.830;9.116;2022-08-27T04:06:55;48.73;;;39.17;;
15488;SDS011;7846;48.830;9.116;2022-08-27T04:09:22;49.80;;;39.40;;
15488;SDS011;7846;48.830;9.116;2022-08-27T04:11:47;48.97;;;39.57;;
15488;SDS011;7846;48.830;9.116;2022-08-27T04:14:13;54.97;;;42.53;;
15488;SDS011;7846;48.830;9.116;2022-08-27T04:16:38;52.17;;;41.60;;
15488;SDS011;7846;48.830;9.116;2022-08-27T04:19:04;55.03;;;42.07;;
15488;SDS011;7846;48.830;9.116;2022-08-27T04:21:30;60.77;;;43.83;;
15488;SDS011;7846;48.830;9.116;2022-08-27T04:23:57;55.13;;;43.53;;
15488;SDS011;7846;48.830;9.116;2022-08-27T04:26:28;58.03;;;45.43;;
15488;SDS011;7846;48.830;9.116;2022-08-27T04:28:55;54.53;;;42.70;;
15488;SDS011;7846;48.830;9.116;2022-08-27T04:31:22;56.17;;;44.30;;
15488;SDS011;7846;48.830;9.116;2022-08-27T04:33:48;55.20;;;44.07;;
15488;SDS011;7846;48.830;9.116;2022-08-27T04:36:14;60.23;;;45.27;;
15488;SDS011;7846;48.830;9.116;2022-08-27T04:38:41;56.50;;;44.20;;
15488;SDS011;7846;48.830;9.116;2022-08-27T04:41:07;57.40;;;44.53;;
15488;SDS011;7846;48.830;9.116;2022-08-27T04:43:51;57.10;;;44.57;;
15488;SDS011;7846;48.830;9.116;2022-08-27T04:46:25;53.93;;;44.80;;
15488;SDS011;7846;48.830;9.116;2022-08-27T04:48:53;56.93;;;44.30;;
15488;SDS011;7846;48.830;9.116;2022-08-27T04:51:20;58.70;;;45.50;;
15488;SDS011;7846;48.830;9.116;2022-08-27T04:53:47;57.70;;;44.27;;
15488;SDS011;7846;48.830;9.116;2022-08-27T04:56:15;51.30;;;41.03;;
15488;SDS011;7846;48.830;9.116;2022-08-27T04:58:42;55.17;;;42.70;;
15488;SDS011;7846;48.830;9.116;2022-08-27T05:01:14;52.17;;;41.63;;
15488;SDS011;7846;48.830;9.116;2022-08-27T05:03:43;52.00;;;41.83;;
15488;SDS011;7846;48.830;9.116;2022-08-27T05:06:10;52.83;;;42.17;;
15488;SDS011;7846;48.830;9.116;2022-08-27T05:08:36;50.60;;;42.17;;
15488;SDS011;7846;48.830;9.116;2022-08-27T05:11:01;52.70;;;42.47;;
15488;SDS011;7846;48.830;9.116;2022-08-27T05:13:30;51.53;;;42.13;;
15488;SDS011;7846;48.830;9.116;2022-08-27T05:15:59;52.60;;;41.73;;
15488;SDS011;7846;48.830;9.116;2022-08-27T05:18:27;53.70;;;42.43;;
15488;SDS011;7846;48.830;9.116;2022-08-27T05:20:53;50.40;;;40.57;;
15488;SDS011;7846;48.830;9.116;2022-08-27T05:23:19;49.20;;;39.67;;
15488;SDS011;7846;48.830;9.116;2022-08-27T05:25:46;52.23;;;41.40;;
15488;SDS011;7846;48.830;9.116;2022-08-27T05:28:13;48.70;;;40.57;;
15488;SDS011;7846;48.830;9.116;2022-08-27T05:30:42;49.60;;;41.90;;
15488;SDS011;7846;48.830;9.116;2022-08-27T05:33:10;51.77;;;42.13;;
15488;SDS011;7846;48.830;9.116;2022-08-27T05:36:00;48.07;;;41.63;;
15488;SDS011;7846;48.830;9.116;2022-08-27T05:38:26;51.37;;;41.50;;
15488;SDS011;7846;48.830;9.116;2022-08-27T05:41:10;51.73;;;41.63;;
15488;SDS011;7846;48.830;9.116;2022-08-27T05:43:38;47.73;;;41.50;;
15488;SDS011;7846;48.830;9.116;2022-08-27T05:46:06;47.10;;;41.60;;
15488;SDS011;7846;48.830;9.116;2022-08-27T05:48:37;51.07;;;41.90;;
15488;SDS011;7846;48.830;9.116;2022-08-27T05:51:08;54.10;;;42.63;;
15488;SDS011;7846;48.830;9.116;2022-08-27T05:53:45;46.10;;;39.77;;
15488;SDS011;7846;48.830;9.116;2022-08-27T05:56:15;47.60;;;40.03;;
15488;SDS011;7846;48.830;9.116;2022-08-27T05:58:42;53.53;;;41.67;;
15488;SDS011;7846;48.830;9.116;2022-08-27T06:01:26;56.13;;;41.83;;
15488;SDS011;7846;48.830;9.116;2022-08-27T06:03:57;48.57;;;40.57;;
15488;SDS011;7846;48.830;9.116;2022-08-27T06:06:26;52.00;;;40.73;;
15488;SDS011;7846;48.830;9.116;2022-08-27T06:08:52;53.13;;;40.57;;
15488;SDS011;7846;48.830;9.116;2022-08-27T06:11:19;63.70;;;41.80;;
15488;SDS011;7846;48.830;9.116;2022-08-27T06:13:46;46.00;;;39.10;;
15488;SDS011;7846;48.830;9.116;2022-08-27T06:16:16;47.43;;;38.77;;
15488;SDS011;7846;48.830;9.116;2022-08-27T06:18:46;51.03;;;40.23;;
15488;SDS011;7846;48.830;9.116;2022-08-27T06:21:16;57.67;;;39.90;;
15488;SDS011;7846;48.830;9.116;2022-08-27T06:23:44;46.30;;;38.40;;
15488;SDS011;7846;48.830;9.116;2022-08-27T06:26:13;73.30;;;39.90;;
15488;SDS011;7846;48.830;9.116;2022-08-27T06:28:42;44.50;;;38.03;;
15488;SDS011;7846;48.830;9.116;2022-08-27T06:31:12;48.07;;;37.53;;
15488;SDS011;7846;48.830;9.116;2022-08-27T06:33:43;49.53;;;36.93;;
15488;SDS011;7846;48.830;9.116;2022-08-27T06:36:13;41.43;;;36.70;;
15488;SDS011;7846;48.830;9.116;2022-08-27T06:38:40;39.77;;;35.57;;
15488;SDS011;7846;48.830;9.116;2022-08-27T06:41:07;38.57;;;34.10;;
15488;SDS011;7846;48.830;9.116;2022-08-27T06:43:35;41.10;;;35.47;;
15488;SDS011;7846;48.830;9.116;2022-08-27T06:46:03;47.77;;;34.40;;
15488;SDS011;7846;48.830;9.116;2022-08-27T06:48:30;37.33;;;33.37;;
15488;SDS011;7846;48.830;9.116;2022-08-27T06:50:55;48.73;;;34.67;;
15488;SDS011;7846;48.830;9.116;2022-08-27T06:53:21;54.97;;;34.40;;
15488;SDS011;7846;48.830;9.116;2022-08-27T06:55:47;56.27;;;33.07;;
15488;SDS011;7846;48.830;9.116;2022-08-27T06:58:14;36.40;;;32.17;;
15488;SDS011;7846;48.830;9.116;2022-08-27T07:00:40;38.23;;;32.87;;
15488;SDS011;7846;48.830;9.116;2022-08-27T07:03:09;35.70;;;31.70;;
15488;SDS011;7846;48.830;9.116;2022-08-27T07:05:37;35.67;;;31.73;;
15488;SDS011;7846;48.830;9.116;2022-08-27T07:08:03;53.13;;;33.63;;
15488;SDS011;7846;48.830;9.116;2022-08-27T07:10:31;35.90;;;31.23;;
15488;SDS011;7846;48.830;9.116;2022-08-27T07:12:57;34.27;;;30.57;;
15488;SDS011;7846;48.830;9.116;2022-08-27T07:15:23;34.77;;;31.07;;
15488;SDS011;7846;48.830;9.116;2022-08-27T07:17:50;33.80;;;30.23;;
15488;SDS011;7846;48.830;9.116;2022-08-27T07:20:16;33.33;;;29.90;;
15488;SDS011;7846;48.830;9.116;2022-08-27T07:22:42;32.17;;;28.83;;
15488;SDS011;7846;48.830;9.116;2022-08-27T07:25:10;32.50;;;29.40;;
15488;SDS011;7846;48.830;9.116;2022-08-27T07:27:39;33.63;;;30.13;;
15488;SDS011;7846;48.830;9.116;2022-08-27T07:30:07;35.50;;;31.37;;
15488;SDS011;7846;48.830;9.116;2022-08-27T07:32:36;34.40;;;30.27;;
15488;SDS011;7846;48.830;9.116;2022-08-27T07:35:03;32.03;;;28.80;;
15488;SDS011;7846;48.830;9.116;2022-08-27T07:37:39;33.20;;;29.63;;
15488;SDS011;7846;48.830;9.116;2022-08-27T07:40:07;34.23;;;30.63;;
15488;SDS011;7846;48.830;9.116;2022-08-27T07:42:36;32.80;;;29.33;;
15488;SDS011;7846;48.830;9.116;2022-08-27T07:45:21;34.53;;;31.00;;
15488;SDS011;7846;48.830;9.116;2022-08-27T07:47:47;34.10;;;30.40;;
15488;SDS011;7846;48.830;9.116;2022-08-27T07:50:14;37.30;;;32.00;;
15488;SDS011;7846;48.830;9.116;2022-08-27T07:52:40;35.17;;;31.47;;
15488;SDS011;7846;48.830;9.116;2022-08-27T07:55:08;35.77;;;31.83;;
15488;SDS011;7846;48.830;9.116;2022-08-27T07:57:39;35.00;;;31.50;;
15488;SDS011;7846;48.830;9.116;2022-08-27T08:00:06;37.50;;;32.47;;
15488;SDS011;7846;48.830;9.116;2022-08-27T08:02:35;35.47;;;31.63;;
15488;SDS011;7846;48.830;9.116;2022-08-27T08:05:01;37.23;;;32.90;;
15488;SDS011;7846;48.830;9.116;2022-08-27T08:07:27;37.77;;;33.13;;
15488;SDS011;7846;48.830;9.116;2022-08-27T08:09:53;38.73;;;32.33;;
15488;SDS011;7846;48.830;9.116;2022-08-27T08:12:19;35.50;;;31.80;;
15488;SDS011;7846;48.830;9.116;2022-08-27T08:14:44;38.07;;;34.00;;
15488;SDS011;7846;48.830;9.116;2022-08-27T08:17:11;37.63;;;31.43;;
15488;SDS011;7846;48.830;9.116;2022-08-27T08:19:36;36.87;;;33.00;;
15488;SDS011;7846;48.830;9.116;2022-08-27T08:22:03;34.93;;;31.23;;
15488;SDS011;7846;48.830;9.116;2022-08-27T08:24:29;36.23;;;32.43;;
15488;SDS011;7846;48.830;9.116;2022-08-27T08:26:55;40.30;;;33.13;;
15488;SDS011;7846;48.830;9.116;2022-08-27T08:29:22;36.13;;;32.40;;
15488;SDS011;7846;48.830;9.116;2022-08-27T08:31:48;36.90;;;32.53;;
15488;SDS011;7846;48.830;9.116;2022-08-27T08:34:13;37.47;;;33.23;;
15488;SDS011;7846;48.830;9.116;2022-08-27T08:36:39;37.80;;;33.67;;
15488;SDS011;7846;48.830;9.116;2022-08-27T08:39:05;39.93;;;33.60;;
15488;SDS011;7846;48.830;9.116;2022-08-27T08:41:38;37.57;;;33.50;;
15488;SDS011;7846;48.830;9.116;2022-08-27T08:44:13;37.87;;;33.57;;
15488;SDS011;7846;48.830;9.116;2022-08-27T08:46:49;38.50;;;33.20;;
15488;SDS011;7846;48.830;9.116;2022-08-27T08:49:43;42.03;;;34.57;;
15488;SDS011;7846;48.830;9.116;2022-08-27T08:52:16;38.70;;;31.80;;
15488;SDS011;7846;48.830;9.116;2022-08-27T08:54:50;37.60;;;33.17;;
15488;SDS011;7846;48.830;9.116;2022-08-27T08:57:22;35.70;;;30.63;;
15488;SDS011;7846;48.830;9.116;2022-08-27T08:59:55;35.77;;;31.87;;
15488;SDS011;7846;48.830;9.116;2022-08-27T09:02:28;37.17;;;32.00;;
15488;SDS011;7846;48.830;9.116;2022-08-27T09:04:55;37.73;;;33.63;;
15488;SDS011;7846;48.830;9.116;2022-08-27T09:07:33;37.20;;;32.33;;
15488;SDS011;7846;48.830;9.116;2022-08-27T09:12:46;37.33;;;33.17;;
15488;SDS011;7846;48.830;9.116;2022-08-27T09:17:40;36.60;;;32.83;;
15488;SDS011;7846;48.830;9.116;2022-08-27T09:25:51;35.70;;;32.13;;
15488;SDS011;7846;48.830;9.116;2022-08-27T09:28:19;36.13;;;32.50;;
15488;SDS011;7846;48.830;9.116;2022-08-27T09:31:10;35.23;;;31.67;;
15488;SDS011;7846;48.830;9.116;2022-08-27T09:33:37;33.70;;;30.40;;
15488;SDS011;7846;48.830;9.116;2022-08-27T09:36:07;31.20;;;27.80;;
15488;SDS011;7846;48.830;9.116;2022-08-27T09:40:59;31.30;;;28.10;;
15488;SDS011;7846;48.830;9.116;2022-08-27T09:43:28;32.13;;;29.00;;
15488;SDS011;7846;48.830;9.116;2022-08-27T09:45:58;30.27;;;27.27;;
15488;SDS011;7846;48.830;9.116;2022-08-27T09:48:31;34.20;;;30.50;;
15488;SDS011;7846;48.830;9.116;2022-08-27T09:51:15;33.47;;;30.07;;
15488;SDS011;7846;48.830;9.116;2022-08-27T09:53:56;32.93;;;29.47;;
15488;SDS011;7846;48.830;9.116;2022-08-27T09:59:21;27.00;;;24.40;;
15488;SDS011;7846;48.830;9.116;2022-08-27T10:02:16;29.13;;;26.27;;
15488;SDS011;7846;48.830;9.116;2022-08-27T10:04:48;29.07;;;26.20;;
15488;SDS011;7846;48.830;9.116;2022-08-27T10:07:25;31.30;;;27.97;;
15488;SDS011;7846;48.830;9.116;2022-08-27T10:09:53;32.67;;;29.17;;
15488;SDS011;7846;48.830;9.116;2022-08-27T10:12:33;31.37;;;28.07;;
15488;SDS011;7846;48.830;9.116;2022-08-27T10:15:27;31.73;;;28.53;;
15488;SDS011;7846;48.830;9.116;2022-08-27T10:18:09;30.50;;;27.43;;
15488;SDS011;7846;48.830;9.116;2022-08-27T10:20:47;31.73;;;28.47;;
15488;SDS011;7846;48.830;9.116;2022-08-27T10:23:33;29.23;;;26.17;;
15488;SDS011;7846;48.830;9.116;2022-08-27T10:26:19;29.17;;;26.10;;
15488;SDS011;7846;48.830;9.116;2022-08-27T10:31:55;27.50;;;24.80;;
15488;SDS011;7846;48.830;9.116;2022-08-27T10:34:37;27.27;;;24.37;;
15488;SDS011;7846;48.830;9.116;2022-08-27T10:37:28;29.83;;;26.70;;
15488;SDS011;7846;48.830;9.116;2022-08-27T10:40:14;41.90;;;26.43;;
15488;SDS011;7846;48.830;9.116;2022-08-27T10:42:49;30.80;;;27.67;;
15488;SDS011;7846;48.830;9.116;2022-08-27T10:48:30;26.20;;;23.80;;
15488;SDS011;7846;48.830;9.116;2022-08-27T10:54:57;27.13;;;24.40;;
15488;SDS011;7846;48.830;9.116;2022-08-27T10:57:12;21.77;;;19.70;;
15488;SDS011;7846;48.830;9.116;2022-08-27T10:59:59;23.60;;;21.27;;
15488;SDS011;7846;48.830;9.116;2022-08-27T11:05:09;29.43;;;26.43;;
15488;SDS011;7846;48.830;9.116;2022-08-27T11:07:49;25.27;;;22.70;;
15488;SDS011;7846;48.830;9.116;2022-08-27T11:10:25;25.37;;;22.77;;
15488;SDS011;7846;48.830;9.116;2022-08-27T11:12:55;27.23;;;24.40;;
15488;SDS011;7846;48.830;9.116;2022-08-27T11:15:31;24.17;;;21.77;;
15488;SDS011;7846;48.830;9.116;2022-08-27T11:18:22;25.03;;;22.73;;
15488;SDS011;7846;48.830;9.116;2022-08-27T11:21:02;24.57;;;22.07;;
15488;SDS011;7846;48.830;9.116;2022-08-27T11:23:38;23.73;;;21.33;;
15488;SDS011;7846;48.830;9.116;2022-08-27T11:26:09;22.77;;;20.57;;
15488;SDS011;7846;48.830;9.116;2022-08-27T11:28:40;24.47;;;22.03;;
15488;SDS011;7846;48.830;9.116;2022-08-27T11:31:17;24.27;;;21.87;;
15488;SDS011;7846;48.830;9.116;2022-08-27T11:34:00;24.00;;;21.70;;
15488;SDS011;7846;48.830;9.116;2022-08-27T11:36:55;23.10;;;20.90;;
15488;SDS011;7846;48.830;9.116;2022-08-27T11:44:58;25.00;;;22.53;;
15488;SDS011;7846;48.830;9.116;2022-08-27T11:47:31;23.13;;;20.93;;
15488;SDS011;7846;48.830;9.116;2022-08-27T11:49:57;23.67;;;21.20;;
15488;SDS011;7846;48.830;9.116;2022-08-27T11:52:35;22.33;;;20.17;;
15488;SDS011;7846;48.830;9.116;2022-08-27T11:55:13;23.27;;;21.03;;
15488;SDS011;7846;48.830;9.116;2022-08-27T11:58:36;23.10;;;20.77;;
15488;SDS011;7846;48.830;9.116;2022-08-27T12:00:46;22.70;;;20.53;;
15488;SDS011;7846;48.830;9.116;2022-08-27T12:11:02;22.23;;;20.03;;
15488;SDS011;7846;48.830;9.116;2022-08-27T12:16:35;24.20;;;21.80;;
15488;SDS011;7846;48.830;9.116;2022-08-27T12:19:30;24.17;;;21.67;;
15488;SDS011;7846;48.830;9.116;2022-08-27T12:22:29;23.53;;;21.07;;
15488;SDS011;7846;48.830;9.116;2022-08-27T12:25:31;24.70;;;22.20;;
15488;SDS011;7846;48.830;9.116;2022-08-27T12:28:00;24.33;;;21.77;;
15488;SDS011;7846;48.830;9.116;2022-08-27T12:30:31;25.03;;;22.53;;
15488;SDS011;7846;48.830;9.116;2022-08-27T12:33:03;24.13;;;20.60;;
15488;SDS011;7846;48.830;9.116;2022-08-27T12:35:46;24.80;;;22.27;;
15488;SDS011;7846;48.830;9.116;2022-08-27T12:38:16;29.73;;;22.30;;
15488;SDS011;7846;48.830;9.116;2022-08-27T12:41:06;26.30;;;23.73;;
15488;SDS011;7846;48.830;9.116;2022-08-27T12:43:39;23.83;;;20.60;;
15488;SDS011;7846;48.830;9.116;2022-08-27T12:46:15;25.63;;;23.03;;
15488;SDS011;7846;48.830;9.116;2022-08-27T12:48:44;26.67;;;24.00;;
15488;SDS011;7846;48.830;9.116;2022-08-27T12:51:15;26.63;;;24.13;;
15488;SDS011;7846;48.830;9.116;2022-08-27T12:53:53;26.00;;;23.50;;
15488;SDS011;7846;48.830;9.116;2022-08-27T13:04:56;26.30;;;23.77;;
15488;SDS011;7846;48.830;9.116;2022-08-27T13:07:29;25.13;;;22.83;;
15488;SDS011;7846;48.830;9.116;2022-08-27T13:09:55;24.37;;;22.37;;
15488;SDS011;7846;48.830;9.116;2022-08-27T13:12:33;25.43;;;23.07;;
15488;SDS011;7846;48.830;9.116;2022-08-27T13:15:05;24.70;;;22.43;;
15488;SDS011;7846;48.830;9.116;2022-08-27T13:17:35;25.13;;;22.83;;
15488;SDS011;7846;48.830;9.116;2022-08-27T13:20:11;25.67;;;23.20;;
15488;SDS011;7846;48.830;9.116;2022-08-27T13:22:46;22.80;;;20.67;;
15488;SDS011;7846;48.830;9.116;2022-08-27T13:25:30;25.33;;;23.00;;
15488;SDS011;7846;48.830;9.116;2022-08-27T13:28:12;25.47;;;23.07;;
15488;SDS011;7846;48.830;9.116;2022-08-27T13:30:45;26.67;;;24.07;;
15488;SDS011;7846;48.830;9.116;2022-08-27T13:33:33;25.27;;;23.10;;
15488;SDS011;7846;48.830;9.116;2022-08-27T13:36:05;24.53;;;22.30;;
15488;SDS011;7846;48.830;9.116;2022-08-27T13:38:39;23.93;;;21.73;;
15488;SDS011;7846;48.830;9.116;2022-08-27T13:41:09;24.53;;;22.33;;
15488;SDS011;7846;48.830;9.116;2022-08-27T13:43:44;24.93;;;22.63;;
15488;SDS011;7846;48.830;9.116;2022-08-27T13:46:12;24.67;;;22.37;;
15488;SDS011;7846;48.830;9.116;2022-08-27T13:48:48;24.53;;;22.03;;
15488;SDS011;7846;48.830;9.116;2022-08-27T13:51:36;22.87;;;20.77;;
15488;SDS011;7846;48.830;9.116;2022-08-27T13:54:07;24.50;;;22.00;;
15488;SDS011;7846;48.830;9.116;2022-08-27T13:59:24;21.73;;;19.63;;
15488;SDS011;7846;48.830;9.116;2022-08-27T14:04:40;20.87;;;18.77;;
15488;SDS011;7846;48.830;9.116;2022-08-27T14:07:09;22.90;;;20.80;;
15488;SDS011;7846;48.830;9.116;2022-08-27T14:09:48;21.10;;;19.00;;
15488;SDS011;7846;48.830;9.116;2022-08-27T14:12:39;20.20;;;18.27;;
15488;SDS011;7846;48.830;9.116;2022-08-27T14:15:11;21.30;;;19.07;;
15488;SDS011;7846;48.830;9.116;2022-08-27T14:17:44;19.67;;;17.90;;
15488;SDS011;7846;48.830;9.116;2022-08-27T14:20:11;19.63;;;17.90;;
15488;SDS011;7846;48.830;9.116;2022-08-27T14:22:39;18.10;;;16.40;;
15488;SDS011;7846;48.830;9.116;2022-08-27T14:25:06;17.67;;;15.97;;
15488;SDS011;7846;48.830;9.116;2022-08-27T14:27:35;18.63;;;16.93;;
15488;SDS011;7846;48.830;9.116;2022-08-27T14:30:01;19.77;;;17.87;;
15488;SDS011;7846;48.830;9.116;2022-08-27T14:32:29;18.23;;;16.33;;
15488;SDS011;7846;48.830;9.116;2022-08-27T14:34:56;19.87;;;17.83;;
15488;SDS011;7846;48.830;9.116;2022-08-27T14:37:25;20.60;;;18.70;;
15488;SDS011;7846;48.830;9.116;2022-08-27T14:39:50;19.73;;;17.93;;
15488;SDS011;7846;48.830;9.116;2022-08-27T14:42:18;19.43;;;17.63;;
15488;SDS011;7846;48.830;9.116;2022-08-27T14:44:48;18.57;;;16.90;;
15488;SDS011;7846;48.830;9.116;2022-08-27T14:47:14;17.80;;;16.20;;
15488;SDS011;7846;48.830;9.116;2022-08-27T14:49:41;18.50;;;16.73;;
15488;SDS011;7846;48.830;9.116;2022-08-27T14:52:11;18.73;;;17.03;;
15488;SDS011;7846;48.830;9.116;2022-08-27T14:54:38;18.77;;;17.07;;
15488;SDS011;7846;48.830;9.116;2022-08-27T14:57:07;18.57;;;16.67;;
15488;SDS011;7846;48.830;9.116;2022-08-27T14:59:33;19.40;;;17.67;;
15488;SDS011;7846;48.830;9.116;2022-08-27T15:02:00;18.80;;;17.00;;
15488;SDS011;7846;48.830;9.116;2022-08-27T15:04:29;19.13;;;17.23;;
15488;SDS011;7846;48.830;9.116;2022-08-27T15:06:58;19.23;;;17.23;;
15488;SDS011;7846;48.830;9.116;2022-08-27T15:09:25;19.37;;;17.37;;
15488;SDS011;7846;48.830;9.116;2022-08-27T15:11:50;18.67;;;16.70;;
15488;SDS011;7846;48.830;9.116;2022-08-27T15:14:19;18.00;;;16.33;;
15488;SDS011;7846;48.830;9.116;2022-08-27T15:17:07;18.50;;;16.90;;
15488;SDS011;7846;48.830;9.116;2022-08-27T15:19:33;20.07;;;18.03;;
15488;SDS011;7846;48.830;9.116;2022-08-27T15:22:07;19.57;;;17.70;;
15488;SDS011;7846;48.830;9.116;2022-08-27T15:24:44;19.00;;;17.07;;
15488;SDS011;7846;48.830;9.116;2022-08-27T15:27:11;19.17;;;17.47;;
15488;SDS011;7846;48.830;9.116;2022-08-27T15:29:38;18.33;;;16.57;;
15488;SDS011;7846;48.830;9.116;2022-08-27T15:32:06;18.73;;;16.90;;
15488;SDS011;7846;48.830;9.116;2022-08-27T15:34:35;18.27;;;16.47;;
15488;SDS011;7846;48.830;9.116;2022-08-27T15:37:01;18.20;;;16.30;;
15488;SDS011;7846;48.830;9.116;2022-08-27T15:39:29;19.57;;;17.60;;
15488;SDS011;7846;48.830;9.116;2022-08-27T15:41:55;20.07;;;18.07;;
15488;SDS011;7846;48.830;9.116;2022-08-27T15:44:21;20.83;;;18.87;;
15488;SDS011;7846;48.830;9.116;2022-08-27T15:46:47;22.17;;;20.00;;
15488;SDS011;7846;48.830;9.116;2022-08-27T15:49:16;22.47;;;20.27;;
15488;SDS011;7846;48.830;9.116;2022-08-27T15:51:43;22.93;;;20.67;;
15488;SDS011;7846;48.830;9.116;2022-08-27T15:54:09;23.47;;;20.90;;
15488;SDS011;7846;48.830;9.116;2022-08-27T15:56:35;23.30;;;20.87;;
15488;SDS011;7846;48.830;9.116;2022-08-27T15:59:00;23.83;;;21.53;;